OE3XAM-13 Weather Reports


Display with metric or nautical units.
time (UTC)temp
F
wind
direction
speed
MPH
gust
MPH
rain 1hr
in
rain 24hr
in
rain mn
in
humidity
%
barometer
mb
20210616014128 58 250 0.0 0.0 0.00 0.00 0.00 72 983.0
20210616011128 59 240 0.0 0.0 0.00 0.00 0.00 72 982.0
20210616004128 59 240 0.0 0.0 0.00 0.00 0.00 72 982.0
20210616001128 60 240 0.0 0.0 0.00 0.00 0.00 72 983.0
20210615234128 60 235 0.0 0.0 0.00 0.00 0.00 73 983.0
20210615231128 61 255 0.0 0.0 0.00 0.00 0.00 73 982.0
20210615224128 62 245 0.0 0.0 0.00 0.00 0.00 73 982.0
20210615221128 62 245 0.0 0.0 0.00 0.00 0.00 74 982.0
20210615214128 62 270 0.0 0.0 0.00 0.00 0.00 74 982.0
20210615211128 63 265 0.0 0.0 0.00 0.00 0.00 73 982.0
20210615204128 64 245 0.0 0.0 0.00 0.00 0.00 73 982.0
20210615201128 65 250 0.0 0.0 0.00 0.00 0.00 72 981.0
20210615194128 66 260 0.0 0.0 0.00 0.00 0.00 70 981.0
20210615191128 68 265 0.0 0.0 0.00 0.00 0.00 69 981.0
20210615184128 71 250 0.0 0.0 0.00 0.00 0.00 67 981.0
20210615181128 73 270 0.0 0.0 0.00 0.00 0.00 64 981.0
20210615174128 76 285 0.0 0.0 0.00 0.00 0.00 59 981.0
20210615171128 83 310 0.0 0.0 0.00 0.00 0.00 41 981.0
20210615164128 90 340 0.0 0.0 0.00 0.00 0.00 33 981.0
20210615161128 87 135 0.0 0.0 0.00 0.00 0.00 38 981.0
20210615154128 88 170 0.0 0.0 0.00 0.00 0.00 35 981.0
20210615151128 86 315 0.0 0.0 0.00 0.00 0.00 36 982.0
20210615144128 85 170 0.0 0.0 0.00 0.00 0.00 38 982.0
20210615141128 85 175 0.0 0.0 0.00 0.00 0.00 38 982.0
20210615134128 84 195 0.0 0.0 0.00 0.00 0.00 37 982.0
20210615131128 83 150 0.0 0.0 0.00 0.00 0.00 39 983.0
20210615124128 85 85 0.0 0.0 0.00 0.00 0.00 36 983.0
20210615121128 84 225 0.0 0.0 0.00 0.00 0.00 36 983.0
20210615114128 81 85 0.0 0.0 0.00 0.00 0.00 36 983.0
20210615111128 81 200 0.0 0.0 0.00 0.00 0.00 37 984.0
20210615104128 80 105 0.0 0.0 0.00 0.00 0.00 39 984.0
20210615101128 79 55 0.0 0.0 0.00 0.00 0.00 41 984.0
20210615094128 77 200 0.0 0.0 0.00 0.00 0.00 46 984.0
20210615091128 76 90 0.0 0.0 0.00 0.00 0.00 47 984.0
20210615084128 74 135 0.0 0.0 0.00 0.00 0.00 52 985.0
20210615081128 71 140 0.0 0.0 0.00 0.00 0.00 58 985.0
20210615074128 66 315 0.0 0.0 0.00 0.00 0.00 65 985.0
20210615071128 62 310 0.0 0.0 0.00 0.00 0.00 70 985.0
20210615064128 60 315 0.0 0.0 0.00 0.00 0.00 74 985.0
20210615061128 57 315 0.0 0.0 0.00 0.00 0.00 75 985.0
20210615054128 54 315 0.0 0.0 0.00 0.00 0.00 75 985.0
20210615051128 52 320 0.0 0.0 0.00 0.00 0.00 75 985.0
20210615044128 50 240 0.0 0.0 0.00 0.00 0.00 73 984.0
20210615041128 49 220 0.0 0.0 0.00 0.00 0.00 74 985.0
20210615034128 49 230 0.0 0.0 0.00 0.00 0.00 74 985.0
20210615031128 49 250 0.0 0.0 0.00 0.00 0.00 74 984.0
20210615024128 49 285 0.0 0.0 0.00 0.00 0.00 74 984.0
20210615021128 50 240 0.0 0.0 0.00 0.00 0.00 74 984.0